Time;durP1;ratioP1;P1;durP2;ratioP2;P2;SDS_P1;SDS_P2;PMS_P1;PMS_P2;Temp;Humidity;BMP_temperature;BMP_pressure;BME280_temperature;BME280_humidity;BME280_pressure;Samples;Min_cycle;Max_cycle;Signal;HPM_P1;HPM_P2
2021/12/14 00:01:09;;;;;;;148.43;65.35;;;;;;;-0.51;100.00;99028.94;5054427;28;20044;-80
2021/12/14 00:03:40;;;;;;;209.98;65.28;;;;;;;-0.72;100.00;99026.34;5051628;28;20102;-82
2021/12/14 00:06:07;;;;;;;299.02;70.57;;;;;;;-0.81;100.00;99022.13;5054936;28;20025;-87
2021/12/14 00:08:46;;;;;;;168.10;67.28;;;;;;;-0.81;100.00;99027.50;5055282;28;20025;-86
2021/12/14 00:14:12;;;;;;;252.52;67.72;;;;;;;-0.96;100.00;99018.72;5053846;28;20061;-86
2021/12/14 00:16:38;;;;;;;209.60;66.25;;;;;;;-1.07;100.00;99023.59;5055149;28;20029;-78
2021/12/14 00:19:03;;;;;;;287.60;78.60;;;;;;;-1.15;100.00;99023.75;5057147;28;20014;-83
2021/12/14 00:21:30;;;;;;;323.25;83.88;;;;;;;-1.13;100.00;99013.63;5055961;28;20036;-84
2021/12/14 00:24:09;;;;;;;312.80;83.50;;;;;;;-1.05;100.00;99014.53;5058876;28;20029;-83
2021/12/14 00:26:46;;;;;;;360.13;85.75;;;;;;;-1.03;100.00;99032.09;5053770;28;20032;-86
2021/12/14 00:29:24;;;;;;;253.75;81.72;;;;;;;-0.98;100.00;99026.97;5051019;28;20026;-86
2021/12/14 00:31:52;;;;;;;248.07;73.53;;;;;;;-0.95;100.00;99015.03;5042311;28;20478;-86
2021/12/14 00:34:24;;;;;;;174.93;65.85;;;;;;;-0.90;100.00;99021.44;5031924;28;20064;-83
2021/12/14 00:36:52;;;;;;;269.95;68.53;;;;;;;-0.86;100.00;99013.84;5029485;28;20026;-81
2021/12/14 00:39:18;;;;;;;239.38;68.88;;;;;;;-0.92;100.00;99003.88;5040323;28;20013;-79
2021/12/14 00:41:44;;;;;;;275.10;71.28;;;;;;;-1.12;100.00;98999.19;5056274;28;20037;-86
2021/12/14 00:44:11;;;;;;;371.88;81.82;;;;;;;-1.00;100.00;99007.53;5050682;28;20021;-86
2021/12/14 00:46:37;;;;;;;405.95;79.50;;;;;;;-0.94;100.00;98995.22;5050609;28;20509;-87
2021/12/14 00:49:05;;;;;;;229.15;72.32;;;;;;;-1.05;100.00;99001.09;5051746;28;20025;-87
2021/12/14 00:51:32;;;;;;;258.63;73.00;;;;;;;-1.10;100.00;98999.81;5052236;28;20029;-86
2021/12/14 00:54:00;;;;;;;256.67;79.38;;;;;;;-1.01;100.00;99010.44;5052527;28;20112;-86
2021/12/14 00:56:26;;;;;;;314.50;82.65;;;;;;;-0.93;100.00;99003.06;5051762;28;20037;-81
2021/12/14 00:58:51;;;;;;;314.00;81.32;;;;;;;-0.92;100.00;99009.25;5054636;28;20117;-79
2021/12/14 01:01:22;;;;;;;194.70;63.80;;;;;;;-0.99;100.00;99016.44;5053963;28;20057;-87
2021/12/14 01:03:52;;;;;;;196.57;59.28;;;;;;;-0.95;100.00;99006.97;5052586;28;20041;-86
2021/12/14 01:06:19;;;;;;;128.85;53.88;;;;;;;-1.00;100.00;99010.22;5054255;28;20024;-86
2021/12/14 01:08:48;;;;;;;143.63;53.38;;;;;;;-1.00;100.00;99006.72;5056665;28;20005;-85
2021/12/14 01:11:23;;;;;;;124.75;47.53;;;;;;;-1.12;100.00;99015.31;5057639;28;20015;-80
2021/12/14 01:14:02;;;;;;;159.63;49.72;;;;;;;-1.17;100.00;99009.72;5055100;28;20033;-86
2021/12/14 01:16:50;;;;;;;115.15;47.83;;;;;;;-1.27;100.00;99016.41;5053525;28;20100;-81
2021/12/14 01:19:25;;;;;;;98.07;47.28;;;;;;;-1.22;100.00;99017.50;5052644;28;20032;-85
2021/12/14 01:27:06;;;;;;;119.93;50.10;;;;;;;-1.21;100.00;99021.84;5050531;28;20116;-85
2021/12/14 01:29:32;;;;;;;126.93;48.70;;;;;;;-1.21;100.00;99016.47;5052072;28;20089;-85
2021/12/14 01:32:00;;;;;;;129.98;47.38;;;;;;;-1.22;100.00;99006.75;5052663;28;20025;-87
2021/12/14 01:34:31;;;;;;;106.90;48.42;;;;;;;-1.14;100.00;99006.63;5053418;28;20026;-87
2021/12/14 01:37:01;;;;;;;112.53;48.33;;;;;;;-1.17;100.00;99000.81;5053827;28;20089;-85
2021/12/14 01:42:01;;;;;;;103.80;47.38;;;;;;;-1.24;100.00;99007.97;5051736;28;20033;-83
2021/12/14 01:44:32;;;;;;;182.05;48.97;;;;;;;-1.39;100.00;99000.03;5049801;28;20033;-87
2021/12/14 01:47:05;;;;;;;223.00;50.70;;;;;;;-1.40;100.00;99009.09;5046611;28;20021;-87
2021/12/14 01:49:31;;;;;;;177.32;49.53;;;;;;;-1.39;100.00;99012.59;5049765;28;20028;-86
2021/12/14 01:52:00;;;;;;;125.93;47.53;;;;;;;-1.49;100.00;99012.09;5049799;28;20085;-86
2021/12/14 01:54:32;;;;;;;147.05;49.83;;;;;;;-1.44;100.00;99010.47;5048493;28;20078;-87
2021/12/14 01:57:00;;;;;;;233.82;53.92;;;;;;;-1.36;100.00;99014.91;5046286;28;20025;-88
2021/12/14 01:59:34;;;;;;;167.25;50.38;;;;;;;-1.37;100.00;99016.75;5049317;28;20044;-85
2021/12/14 02:04:41;;;;;;;180.52;55.22;;;;;;;-1.32;100.00;99002.75;5050068;28;20402;-86
2021/12/14 02:07:08;;;;;;;174.80;55.78;;;;;;;-1.24;100.00;98998.09;5051617;28;20037;-85
2021/12/14 02:09:36;;;;;;;152.18;51.10;;;;;;;-1.18;100.00;98993.78;5050122;28;20117;-83
2021/12/14 02:12:19;;;;;;;164.25;52.33;;;;;;;-1.15;100.00;99009.50;5050710;28;20085;-87
2021/12/14 02:14:46;;;;;;;119.93;49.55;;;;;;;-1.26;100.00;99002.81;5051402;28;20040;-85
2021/12/14 02:17:15;;;;;;;185.43;54.95;;;;;;;-1.45;100.00;99000.81;5050916;28;20021;-82
2021/12/14 02:19:42;;;;;;;130.75;53.42;;;;;;;-1.37;100.00;98995.28;5051173;28;20033;-83
2021/12/14 02:22:08;;;;;;;320.13;60.58;;;;;;;-1.47;100.00;98999.34;5050797;28;20026;-88
2021/12/14 02:24:37;;;;;;;237.77;59.80;;;;;;;-1.38;100.00;99000.84;5051200;28;20027;-87
2021/12/14 02:27:03;;;;;;;215.07;57.88;;;;;;;-1.43;100.00;98996.06;5052031;28;20080;-86
2021/12/14 02:29:40;;;;;;;163.35;56.60;;;;;;;-1.46;100.00;99000.97;5050642;28;20032;-84
2021/12/14 02:32:11;;;;;;;241.55;59.63;;;;;;;-1.45;100.00;99000.81;5051060;28;20028;-79
2021/12/14 02:34:47;;;;;;;179.40;57.33;;;;;;;-1.50;100.00;98999.72;5056862;28;20029;-86
2021/12/14 02:37:14;;;;;;;269.13;61.45;;;;;;;-1.51;100.00;98981.97;5054169;28;20022;-87
2021/12/14 02:42:14;;;;;;;170.88;59.08;;;;;;;-1.49;100.00;98994.16;5048040;28;20089;-85
2021/12/14 02:44:40;;;;;;;145.32;56.20;;;;;;;-1.32;100.00;99002.75;5042886;28;20021;-88
2021/12/14 02:47:12;;;;;;;220.93;60.50;;;;;;;-1.31;100.00;98999.88;5042228;28;20040;-82
2021/12/14 02:49:39;;;;;;;162.63;54.78;;;;;;;-1.29;100.00;98986.28;5044094;28;20483;-84
2021/12/14 02:52:09;;;;;;;147.30;51.80;;;;;;;-1.29;100.00;99000.53;5041247;28;20093;-85
2021/12/14 02:54:40;;;;;;;149.98;53.22;;;;;;;-1.22;100.00;98993.34;5045465;28;20050;-80
2021/12/14 02:57:11;;;;;;;173.77;55.20;;;;;;;-1.26;100.00;98991.25;5064693;28;20056;-88
2021/12/14 02:59:40;;;;;;;223.52;58.97;;;;;;;-1.27;100.00;98992.28;5069220;28;20040;-85
2021/12/14 03:02:12;;;;;;;160.15;57.42;;;;;;;-1.24;100.00;98998.09;5067966;28;20017;-86
2021/12/14 03:04:51;;;;;;;206.32;58.70;;;;;;;-1.25;100.00;98998.25;5066079;28;20071;-86
2021/12/14 03:07:21;;;;;;;131.15;56.50;;;;;;;-1.22;100.00;98992.50;5069654;28;20033;-86
2021/12/14 03:09:58;;;;;;;143.15;57.92;;;;;;;-1.19;100.00;98992.94;5071298;28;20375;-83
2021/12/14 03:12:29;;;;;;;146.65;54.92;;;;;;;-1.16;100.00;98997.94;5074825;28;20005;-82
2021/12/14 03:15:11;;;;;;;137.55;56.80;;;;;;;-1.14;100.00;99001.25;5064976;28;20057;-88
2021/12/14 03:17:38;;;;;;;231.93;57.08;;;;;;;-1.02;100.00;99000.72;5052141;28;20029;-83
2021/12/14 03:20:17;;;;;;;200.30;57.20;;;;;;;-0.96;100.00;99008.81;5043876;28;20025;-85
2021/12/14 03:23:01;;;;;;;248.65;61.85;;;;;;;-1.13;100.00;99002.09;5044415;28;20044;-87
2021/12/14 03:25:29;;;;;;;194.45;58.47;;;;;;;-1.05;100.00;99004.63;5052679;28;20052;-84
2021/12/14 03:27:56;;;;;;;180.27;58.78;;;;;;;-1.03;100.00;99007.94;5052334;28;20025;-85
2021/12/14 03:30:33;;;;;;;172.07;58.63;;;;;;;-1.03;100.00;99001.75;5049817;28;20021;-87
2021/12/14 03:33:21;;;;;;;182.23;55.30;;;;;;;-1.08;100.00;99000.47;5050283;28;20025;-84
2021/12/14 03:35:54;;;;;;;198.68;59.47;;;;;;;-1.06;100.00;99008.31;5050590;28;20116;-86
2021/12/14 03:38:27;;;;;;;114.57;49.45;;;;;;;-1.23;100.00;99007.81;5052566;28;20068;-85
2021/12/14 03:41:00;;;;;;;113.40;47.65;;;;;;;-1.28;100.00;99002.16;5051712;28;20033;-84
2021/12/14 03:43:27;;;;;;;101.10;48.10;;;;;;;-1.26;100.00;99002.81;5050975;28;20014;-85
2021/12/14 03:45:53;;;;;;;94.35;43.67;;;;;;;-1.21;100.00;98997.69;5051197;28;20021;-86
2021/12/14 03:48:25;;;;;;;115.72;48.15;;;;;;;-1.30;100.00;99000.72;5052052;28;20045;-84
2021/12/14 03:50:52;;;;;;;105.22;46.38;;;;;;;-1.22;100.00;99006.75;5050432;28;20029;-85
2021/12/14 03:53:20;;;;;;;105.38;48.55;;;;;;;-1.14;100.00;99001.25;5050661;28;20037;-82
2021/12/14 03:55:54;;;;;;;101.82;48.47;;;;;;;-1.25;100.00;98999.09;5050960;28;20053;-85
2021/12/14 03:58:30;;;;;;;135.73;53.05;;;;;;;-1.21;100.00;98994.16;5048494;28;20056;-82
2021/12/14 04:01:04;;;;;;;109.05;47.80;;;;;;;-1.16;100.00;98997.94;5048676;28;20025;-81
2021/12/14 04:03:31;;;;;;;91.35;42.88;;;;;;;-1.14;100.00;99000.44;5047001;28;20029;-85
2021/12/14 04:05:58;;;;;;;96.40;41.92;;;;;;;-1.15;100.00;98988.84;5049326;28;20017;-84
2021/12/14 04:08:25;;;;;;;108.25;42.97;;;;;;;-1.19;100.00;99003.69;5051042;28;20026;-85
2021/12/14 04:10:53;;;;;;;93.30;39.28;;;;;;;-1.27;100.00;99000.31;5050590;28;21020;-84
2021/12/14 04:13:26;;;;;;;102.32;42.67;;;;;;;-1.30;100.00;98990.81;5049781;28;20009;-82
2021/12/14 04:15:53;;;;;;;100.43;41.58;;;;;;;-1.33;100.00;98993.03;5050054;28;20029;-85
2021/12/14 04:18:19;;;;;;;96.47;44.28;;;;;;;-1.36;100.00;99002.31;5050101;28;20030;-84
2021/12/14 04:20:47;;;;;;;120.95;41.65;;;;;;;-1.31;100.00;99004.41;5053753;28;20025;-85
2021/12/14 04:23:22;;;;;;;92.60;41.92;;;;;;;-1.29;100.00;99003.22;5054474;28;20017;-87
2021/12/14 04:25:49;;;;;;;106.88;40.72;;;;;;;-1.32;100.00;99008.97;5056079;28;20434;-85
2021/12/14 04:28:23;;;;;;;87.90;41.30;;;;;;;-1.42;100.00;98989.69;5058150;28;20038;-75
2021/12/14 04:30:49;;;;;;;140.02;41.67;;;;;;;-1.41;100.00;99010.09;5056760;28;20026;-86
2021/12/14 04:33:18;;;;;;;158.32;43.40;;;;;;;-1.37;100.00;99013.22;5052356;28;20045;-79
2021/12/14 04:35:45;;;;;;;100.93;39.38;;;;;;;-1.43;100.00;99001.44;5051093;28;20040;-85
2021/12/14 04:38:22;;;;;;;109.47;42.35;;;;;;;-1.37;100.00;99006.00;5051854;28;20479;-85
2021/12/14 04:51:58;;;;;;;263.52;61.53;;;;;;;-1.60;100.00;99007.25;5052062;28;20091;-86
2021/12/14 04:54:27;;;;;;;197.90;57.15;;;;;;;-1.52;100.00;99013.31;5053554;28;20029;-86
2021/12/14 04:56:52;;;;;;;158.98;52.25;;;;;;;-1.49;100.00;99017.47;5052061;28;20080;-87
2021/12/14 04:59:26;;;;;;;178.07;57.63;;;;;;;-1.49;100.00;99012.94;5051998;28;20030;-86
2021/12/14 05:01:56;;;;;;;155.02;55.90;;;;;;;-1.38;100.00;99019.63;5054003;28;20029;-86
2021/12/14 05:04:24;;;;;;;138.93;54.38;;;;;;;-1.46;100.00;99020.59;5053433;28;20026;-81
2021/12/14 05:07:02;;;;;;;195.23;54.28;;;;;;;-1.52;100.00;99018.69;5052782;28;20029;-88
2021/12/14 05:09:32;;;;;;;99.10;44.85;;;;;;;-1.37;100.00;99019.44;5049949;28;20025;-86
2021/12/14 05:12:09;;;;;;;91.82;40.60;;;;;;;-1.29;100.00;99018.47;5043862;28;20029;-85
2021/12/14 05:14:36;;;;;;;90.25;39.30;;;;;;;-1.36;100.00;99022.94;5043510;28;20064;-85
2021/12/14 05:17:06;;;;;;;111.35;40.97;;;;;;;-1.32;100.00;99027.75;5044039;28;20065;-90
2021/12/14 05:19:35;;;;;;;79.65;37.10;;;;;;;-1.26;100.00;99036.88;5046526;28;20033;-83
2021/12/14 05:22:12;;;;;;;106.50;39.38;;;;;;;-1.31;100.00;99036.59;5047276;28;20037;-84
2021/12/14 05:24:40;;;;;;;92.07;37.10;;;;;;;-1.38;100.00;99035.72;5052304;28;20022;-86
2021/12/14 05:27:09;;;;;;;102.00;37.80;;;;;;;-1.34;100.00;99032.47;5053562;28;20045;-86
2021/12/14 05:29:36;;;;;;;193.85;45.40;;;;;;;-1.43;100.00;99038.16;5047268;28;20445;-84
2021/12/14 05:32:04;;;;;;;92.95;38.97;;;;;;;-1.39;100.00;99040.25;5052396;28;20112;-80
2021/12/14 05:34:30;;;;;;;120.90;40.63;;;;;;;-1.50;100.00;99032.72;5052402;28;20025;-85
2021/12/14 05:36:56;;;;;;;188.38;45.55;;;;;;;-1.61;100.00;99041.28;5043967;28;20020;-85
2021/12/14 05:39:45;;;;;;;155.93;43.55;;;;;;;-1.74;100.00;99043.81;5045764;28;20033;-83
2021/12/14 05:44:56;;;;;;;131.55;42.83;;;;;;;-1.68;100.00;99045.75;5016918;28;20060;-84
2021/12/14 05:47:22;;;;;;;96.68;40.30;;;;;;;-1.66;100.00;99054.44;5016223;28;20069;-83
2021/12/14 05:49:48;;;;;;;105.05;40.38;;;;;;;-1.62;100.00;99056.53;5023850;28;20022;-87
2021/12/14 05:52:25;;;;;;;100.68;39.85;;;;;;;-1.57;100.00;99061.34;5024795;28;20025;-82
2021/12/14 05:54:53;;;;;;;110.38;39.35;;;;;;;-1.61;100.00;99057.38;5034813;28;20110;-84
2021/12/14 05:57:22;;;;;;;94.22;37.10;;;;;;;-1.70;100.00;99043.25;5034965;28;20091;-84
2021/12/14 05:59:48;;;;;;;134.20;37.90;;;;;;;-1.68;100.00;99038.53;5040240;28;20021;-87
2021/12/14 06:02:15;;;;;;;85.10;37.58;;;;;;;-1.71;100.00;99043.44;5034777;28;20034;-85
2021/12/14 06:04:44;;;;;;;91.22;39.53;;;;;;;-1.83;100.00;99044.97;5034550;28;20132;-85
2021/12/14 06:07:11;;;;;;;133.65;42.38;;;;;;;-1.77;100.00;99052.25;5031628;28;20360;-83
2021/12/14 06:09:42;;;;;;;185.88;43.97;;;;;;;-1.86;100.00;99066.78;5030317;28;20038;-79
2021/12/14 06:12:21;;;;;;;99.93;39.28;;;;;;;-1.79;100.00;99065.03;5029309;28;20057;-85
2021/12/14 06:14:54;;;;;;;97.20;36.30;;;;;;;-1.76;100.00;99070.00;5021331;28;20037;-80
2021/12/14 06:17:32;;;;;;;104.43;36.80;;;;;;;-1.81;100.00;99059.84;5031749;28;20026;-83
2021/12/14 06:20:06;;;;;;;100.20;35.50;;;;;;;-1.76;100.00;99070.00;5031728;28;20463;-85
2021/12/14 06:22:33;;;;;;;112.35;37.53;;;;;;;-1.89;100.00;99078.72;5043580;28;20052;-86
2021/12/14 06:25:05;;;;;;;99.70;39.38;;;;;;;-1.96;100.00;99079.66;5037211;28;20053;-83
2021/12/14 06:27:31;;;;;;;97.30;38.10;;;;;;;-1.94;100.00;99077.63;5031141;28;20507;-83
2021/12/14 06:30:17;;;;;;;83.75;39.97;;;;;;;-1.94;100.00;99073.06;5035945;28;20120;-84
2021/12/14 06:32:49;;;;;;;92.65;37.90;;;;;;;-1.89;100.00;99078.72;5034299;28;20036;-78
2021/12/14 06:35:22;;;;;;;94.30;37.03;;;;;;;-1.94;100.00;99066.91;5020288;28;20042;-84
2021/12/14 06:40:48;;;;;;;115.47;36.15;;;;;;;-2.12;100.00;99077.19;5038033;28;20502;-79
2021/12/14 06:43:21;;;;;;;110.82;37.03;;;;;;;-2.16;100.00;99074.88;5040007;28;20041;-83
2021/12/14 06:45:55;;;;;;;89.35;37.83;;;;;;;-2.22;100.00;99083.66;5035986;28;20025;-86
2021/12/14 06:48:33;;;;;;;57.88;29.55;;;;;;;-2.22;100.00;99078.28;5038476;28;20041;-84
2021/12/14 06:51:01;;;;;;;68.78;29.88;;;;;;;-2.30;100.00;99077.56;5036129;28;20021;-83
2021/12/14 06:53:30;;;;;;;66.22;31.30;;;;;;;-2.43;100.00;99072.03;5032858;28;20107;-79
2021/12/14 06:55:58;;;;;;;68.55;30.40;;;;;;;-2.36;100.00;99068.44;5032911;28;20056;-78
2021/12/14 06:58:30;;;;;;;67.85;29.52;;;;;;;-2.31;100.00;99076.75;5035334;28;20060;-76
2021/12/14 07:01:13;;;;;;;75.03;31.25;;;;;;;-2.31;100.00;99070.53;5033507;28;20006;-82
2021/12/14 07:03:57;;;;;;;64.72;31.98;;;;;;;-2.28;100.00;99076.38;5012606;28;20030;-83
2021/12/14 07:06:37;;;;;;;62.55;31.23;;;;;;;-2.18;100.00;99073.41;5026550;28;20767;-88
2021/12/14 07:09:18;;;;;;;68.45;33.42;;;;;;;-2.11;100.00;99078.84;5032465;28;20026;-85
2021/12/14 07:11:48;;;;;;;60.15;30.65;;;;;;;-2.11;100.00;99079.69;5034949;28;20040;-82
2021/12/14 07:14:26;;;;;;;54.65;27.85;;;;;;;-2.01;100.00;99074.88;5033802;28;20032;-82
2021/12/14 07:16:54;;;;;;;61.85;29.65;;;;;;;-1.98;100.00;99079.03;5040623;28;20029;-82
2021/12/14 07:19:39;;;;;;;55.80;27.10;;;;;;;-1.95;100.00;99079.47;5050213;28;20055;-82
2021/12/14 07:22:06;;;;;;;60.60;31.42;;;;;;;-1.90;100.00;99082.41;5050741;28;20029;-86
2021/12/14 07:24:36;;;;;;;55.90;29.65;;;;;;;-1.89;100.00;99086.75;5050838;28;20013;-81
2021/12/14 07:27:15;;;;;;;62.72;31.27;;;;;;;-1.84;100.00;99078.97;5050229;28;20033;-81
2021/12/14 07:29:40;;;;;;;62.75;30.83;;;;;;;-1.93;100.00;99081.94;5032190;28;20033;-81
2021/12/14 07:32:06;;;;;;;72.63;33.20;;;;;;;-1.98;100.00;99071.81;5031718;28;20025;-81
2021/12/14 07:34:32;;;;;;;66.68;30.85;;;;;;;-1.97;100.00;99081.50;5031014;28;20048;-79
2021/12/14 07:36:58;;;;;;;69.03;34.80;;;;;;;-2.13;100.00;99076.34;5030074;28;20037;-82
2021/12/14 07:39:23;;;;;;;64.70;32.45;;;;;;;-2.09;100.00;99080.31;5030513;28;20034;-81
2021/12/14 07:41:50;;;;;;;94.88;41.17;;;;;;;-2.16;100.00;99080.22;5029856;28;20032;-85
2021/12/14 07:44:19;;;;;;;103.35;45.35;;;;;;;-2.18;100.00;99089.47;5030416;28;20040;-81
2021/12/14 07:46:47;;;;;;;131.38;42.50;;;;;;;-2.11;100.00;99097.59;5030634;28;20049;-84
2021/12/14 07:49:29;;;;;;;96.93;40.35;;;;;;;-1.96;100.00;99090.38;5032289;28;20037;-77
2021/12/14 07:52:04;;;;;;;93.10;40.40;;;;;;;-1.78;100.00;99096.16;5032925;28;20138;-82
2021/12/14 07:54:36;;;;;;;81.20;35.00;;;;;;;-1.79;100.00;99103.38;5041007;28;20053;-83
2021/12/14 07:57:07;;;;;;;80.95;36.10;;;;;;;-1.70;100.00;99104.09;5039710;28;20528;-83
2021/12/14 07:59:36;;;;;;;97.47;36.92;;;;;;;-1.73;100.00;99112.53;5042015;28;20056;-80
2021/12/14 08:02:13;;;;;;;140.70;41.25;;;;;;;-1.67;100.00;99109.09;5040265;28;20060;-82
2021/12/14 08:04:41;;;;;;;100.43;39.45;;;;;;;-1.59;100.00;99102.75;5036577;28;20040;-78
2021/12/14 08:07:07;;;;;;;126.22;38.63;;;;;;;-1.72;100.00;99096.22;5036865;28;20037;-79
2021/12/14 08:09:51;;;;;;;82.53;34.10;;;;;;;-1.77;100.00;99098.66;5035993;28;20032;-86
2021/12/14 08:12:48;;;;;;;94.43;35.45;;;;;;;-1.71;100.00;99105.09;5035295;28;20021;-80
2021/12/14 08:15:49;;;;;;;73.82;34.65;;;;;;;-1.55;100.00;99099.53;5021767;28;20056;-78
2021/12/14 08:18:27;;;;;;;73.25;32.03;;;;;;;-1.42;100.00;99096.97;5020748;28;20038;-82
2021/12/14 08:20:57;;;;;;;77.68;33.85;;;;;;;-1.27;100.00;99105.81;5034222;28;20149;-80
2021/12/14 08:23:32;;;;;;;73.45;33.83;;;;;;;-1.20;100.00;99090.59;5034035;28;20014;-86
2021/12/14 08:26:02;;;;;;;76.75;34.75;;;;;;;-1.40;100.00;99097.63;5033549;28;20041;-77
2021/12/14 08:28:28;;;;;;;82.15;36.55;;;;;;;-1.45;100.00;99100.06;5030841;28;20117;-77
2021/12/14 08:30:59;;;;;;;70.78;31.58;;;;;;;-1.38;100.00;99100.13;5033081;28;20109;-77
2021/12/14 08:33:28;;;;;;;62.83;31.50;;;;;;;-1.28;100.00;99096.06;5034006;28;20430;-81
2021/12/14 08:35:59;;;;;;;68.43;29.73;;;;;;;-1.24;100.00;99108.09;5040205;28;20060;-80
2021/12/14 08:38:27;;;;;;;67.07;30.70;;;;;;;-1.13;100.00;99110.25;5036024;28;20026;-79
2021/12/14 08:40:59;;;;;;;66.68;31.33;;;;;;;-1.08;100.00;99101.63;5032758;28;20029;-76
2021/12/14 08:43:31;;;;;;;67.60;34.15;;;;;;;-1.04;100.00;99096.72;5033246;28;20029;-82
2021/12/14 08:46:10;;;;;;;65.75;33.42;;;;;;;-0.92;100.00;99093.31;5034825;28;20029;-77
2021/12/14 08:48:39;;;;;;;65.32;32.15;;;;;;;-0.92;100.00;99101.38;5049870;28;20108;-76
2021/12/14 08:51:15;;;;;;;52.80;27.63;;;;;;;-0.79;100.00;99111.41;5051524;28;20037;-82
2021/12/14 08:53:50;;;;;;;49.90;24.77;;;;;;;-0.54;100.00;99107.25;5052615;28;20032;-84
2021/12/14 08:56:19;;;;;;;49.80;27.70;;;;;;;-0.68;100.00;99103.63;5025653;28;20045;-82
2021/12/14 08:58:47;;;;;;;47.17;25.23;;;;;;;-0.52;100.00;99105.19;5031675;28;20041;-85
2021/12/14 09:01:20;;;;;;;49.53;26.20;;;;;;;-0.38;100.00;99115.00;5033343;28;20525;-86
2021/12/14 09:04:00;;;;;;;50.47;26.35;;;;;;;-0.20;100.00;99106.44;5033302;28;20048;-82
2021/12/14 09:06:30;;;;;;;57.47;29.70;;;;;;;-0.47;100.00;99105.41;5033601;28;20038;-83
2021/12/14 09:09:00;;;;;;;49.10;28.33;;;;;;;-0.47;100.00;99110.00;5037584;28;20029;-82
2021/12/14 09:11:29;;;;;;;76.07;34.10;;;;;;;-0.27;100.00;99109.06;5041121;28;20040;-80
2021/12/14 09:13:56;;;;;;;71.30;34.08;;;;;;;-0.21;100.00;99123.56;5033972;28;20018;-82
2021/12/14 09:16:26;;;;;;;68.43;29.25;;;;;;;-0.09;100.00;99122.81;5031328;28;20478;-77
2021/12/14 09:19:14;;;;;;;69.57;31.38;;;;;;;-0.16;100.00;99126.50;5032162;28;20029;-78
2021/12/14 09:21:43;;;;;;;68.63;33.42;;;;;;;-0.05;100.00;99121.41;5027758;28;20029;-82
2021/12/14 09:24:13;;;;;;;67.47;31.50;;;;;;;-0.01;100.00;99122.69;5032687;28;20091;-80
2021/12/14 09:26:46;;;;;;;73.25;34.88;;;;;;;-0.27;100.00;99117.13;5032221;28;20040;-80
2021/12/14 09:29:14;;;;;;;77.57;35.28;;;;;;;-0.10;100.00;99101.53;5030193;28;20034;-79
2021/12/14 09:31:42;;;;;;;75.82;33.53;;;;;;;0.20;100.00;99102.06;5032171;28;20121;-78
2021/12/14 09:34:10;;;;;;;74.53;34.28;;;;;;;0.08;100.00;99087.53;5031910;28;20049;-81
2021/12/14 09:36:37;;;;;;;70.30;32.67;;;;;;;0.39;100.00;99086.00;5032384;28;20017;-82
2021/12/14 09:39:13;;;;;;;67.35;33.60;;;;;;;0.49;100.00;99085.63;5032831;28;20044;-81
2021/12/14 09:41:41;;;;;;;65.20;32.70;;;;;;;0.52;100.00;99087.91;5031219;28;20095;-83
2021/12/14 09:44:11;;;;;;;77.03;34.75;;;;;;;0.48;100.00;99084.78;5031631;28;20084;-79
2021/12/14 09:46:38;;;;;;;72.40;31.63;;;;;;;0.45;100.00;99084.34;5032008;28;20061;-78
2021/12/14 09:49:06;;;;;;;93.13;38.47;;;;;;;0.29;100.00;99080.16;5031736;28;20018;-83
2021/12/14 09:51:42;;;;;;;86.78;39.25;;;;;;;0.18;100.00;99074.56;5031020;28;20069;-78
2021/12/14 09:54:12;;;;;;;81.55;36.13;;;;;;;0.34;100.00;99072.34;5031561;28;20049;-77
2021/12/14 09:56:42;;;;;;;81.05;37.17;;;;;;;0.52;100.00;99061.81;5031263;28;20030;-77
2021/12/14 09:59:10;;;;;;;87.07;37.58;;;;;;;0.62;100.00;99065.97;5032431;28;20042;-82
2021/12/14 10:01:41;;;;;;;79.40;37.47;;;;;;;0.65;100.00;99069.09;5031792;28;20029;-80
2021/12/14 10:04:17;;;;;;;84.18;36.03;;;;;;;0.85;100.00;99069.09;5032741;28;20037;-78
2021/12/14 10:06:42;;;;;;;;;;;;;;;1.13;100.00;99068.94;5033491;28;20034;-81
2021/12/14 10:09:13;;;;;;;;;;;;;;;1.11;100.00;99071.81;5034080;28;19924;-86
2021/12/14 10:14:25;;;;;;;72.55;33.53;;;;;;;1.36;100.00;99055.84;5034360;28;20037;-85
2021/12/14 10:16:51;;;;;;;82.95;37.35;;;;;;;1.38;100.00;99067.25;5034083;28;20036;-80
2021/12/14 10:19:21;;;;;;;81.72;36.03;;;;;;;1.37;100.00;99055.66;5032307;28;20018;-82
2021/12/14 10:21:51;;;;;;;77.50;37.10;;;;;;;1.34;100.00;99052.53;5032269;28;20069;-83
2021/12/14 10:24:18;;;;;;;95.00;42.08;;;;;;;1.63;100.00;99050.19;5040120;28;20390;-85
2021/12/14 10:26:47;;;;;;;86.60;38.25;;;;;;;1.52;100.00;99044.63;5041917;28;20032;-86
2021/12/14 10:29:14;;;;;;;92.60;42.28;;;;;;;1.77;100.00;99045.59;5037724;28;20041;-84
2021/12/14 10:31:52;;;;;;;89.45;40.35;;;;;;;1.77;100.00;99042.91;5037308;28;20056;-86
2021/12/14 10:34:24;;;;;;;96.40;43.33;;;;;;;1.57;100.00;99031.34;5039971;28;20040;-85
2021/12/14 10:37:00;;;;;;;98.50;43.33;;;;;;;1.65;100.00;99044.59;5035107;28;20040;-87
2021/12/14 10:44:50;;;;;;;90.78;42.00;;;;;;;1.93;100.00;99036.22;5029902;28;20095;-76
2021/12/14 10:47:18;;;;;;;87.13;42.50;;;;;;;1.93;100.00;99037.03;5034464;28;20033;-82
2021/12/14 10:49:45;;;;;;;102.22;44.47;;;;;;;1.88;100.00;99028.75;5033965;28;20057;-82
2021/12/14 10:52:14;;;;;;;97.65;44.38;;;;;;;1.78;100.00;99030.25;5034418;28;20025;-82
2021/12/14 10:54:46;;;;;;;95.53;39.85;;;;;;;1.96;100.00;99033.09;5029805;28;20041;-78
2021/12/14 10:57:15;;;;;;;84.80;39.58;;;;;;;1.93;100.00;99030.81;5035291;28;20030;-86
2021/12/14 10:59:45;;;;;;;83.30;38.60;;;;;;;2.04;100.00;99022.03;5043783;28;20030;-84
2021/12/14 11:02:11;;;;;;;81.28;34.10;;;;;;;2.01;100.00;99020.59;5038191;28;20017;-85
2021/12/14 11:04:55;;;;;;;65.20;31.90;;;;;;;1.91;100.00;99028.31;5035230;28;20022;-85
2021/12/14 11:07:38;;;;;;;65.03;31.98;;;;;;;1.90;100.00;99015.91;5038445;28;20028;-85
2021/12/14 11:10:20;;;;;;;75.88;34.97;;;;;;;2.04;100.00;99025.56;5038862;28;20026;-84
2021/12/14 11:12:53;;;;;;;61.90;30.13;;;;;;;2.01;100.00;99031.41;5035207;28;20033;-84
2021/12/14 11:15:24;;;;;;;59.90;30.63;;;;;;;1.97;100.00;99022.06;5032994;28;20061;-84
2021/12/14 11:18:09;;;;;;;70.32;32.85;;;;;;;2.10;100.00;99022.00;5035115;28;20383;-87
2021/12/14 11:20:41;;;;;;;62.50;30.13;;;;;;;2.27;100.00;99016.97;5039662;28;20044;-85
2021/12/14 11:23:17;;;;;;;64.80;30.35;;;;;;;2.54;100.00;99010.34;5043937;28;20128;-86
2021/12/14 11:25:50;;;;;;;66.70;31.73;;;;;;;2.62;100.00;99004.69;5042979;28;20045;-84
2021/12/14 11:28:40;;;;;;;67.43;31.08;;;;;;;2.77;100.00;98998.13;5049102;28;20049;-86
2021/12/14 11:31:14;;;;;;;68.65;31.25;;;;;;;2.53;100.00;98995.22;5051917;28;20555;-82
2021/12/14 11:33:45;;;;;;;65.40;30.42;;;;;;;2.58;100.00;98991.84;5052081;28;20014;-87
2021/12/14 11:36:17;;;;;;;63.28;29.95;;;;;;;2.61;100.00;98991.41;5052246;28;20067;-87
2021/12/14 11:38:52;;;;;;;71.18;33.83;;;;;;;2.72;100.00;98988.00;5052643;28;20022;-87
2021/12/14 11:41:30;;;;;;;69.88;31.70;;;;;;;2.80;100.00;98990.44;5053157;28;20026;-81
2021/12/14 11:44:11;;;;;;;75.63;34.47;;;;;;;2.50;100.00;98994.81;5052140;28;20056;-86
2021/12/14 11:47:21;;;;;;;78.75;36.17;;;;;;;2.01;100.00;98985.53;5052232;28;20029;-84
2021/12/14 11:49:53;;;;;;;76.30;37.63;;;;;;;2.59;100.00;98982.72;5031386;28;20026;-85
2021/12/14 11:52:49;;;;;;;83.15;38.78;;;;;;;2.60;100.00;98977.06;5029407;28;20032;-84
2021/12/14 11:55:41;;;;;;;72.43;36.13;;;;;;;2.86;100.00;98969.81;5031968;28;20053;-82
2021/12/14 11:58:23;;;;;;;82.30;36.92;;;;;;;3.05;100.00;98966.94;5039997;28;20495;-87
2021/12/14 12:01:14;;;;;;;84.93;38.78;;;;;;;3.07;100.00;98964.81;5043699;28;20029;-84
2021/12/14 12:03:45;;;;;;;81.40;37.83;;;;;;;3.07;100.00;98954.03;5047179;28;20030;-83
2021/12/14 12:11:49;;;;;;;101.72;44.83;;;;;;;2.81;100.00;98954.28;5051880;28;20064;-86
2021/12/14 12:14:20;;;;;;;88.20;40.85;;;;;;;2.60;100.00;98951.97;5049456;28;20022;-85